Time;durP1;ratioP1;P1;durP2;ratioP2;P2;SDS_P1;SDS_P2;PMS_P1;PMS_P2;Temp;Humidity;BMP_temperature;BMP_pressure;BME280_temperature;BME280_humidity;BME280_pressure;Samples;Min_cycle;Max_cycle;Signal;HPM_P1;HPM_P2
2023/11/16 00:00:15;;;;;;;24.15;4.97;;;9.20;99.90;;;;;;5070875;28;20052;-52
2023/11/16 00:02:42;;;;;;;13.32;4.18;;;9.20;99.90;;;;;;5070791;28;20028;-52
2023/11/16 00:05:11;;;;;;;14.98;4.32;;;9.20;99.90;;;;;;5070974;28;20513;-53
2023/11/16 00:07:41;;;;;;;12.63;4.22;;;9.10;99.90;;;;;;5068922;28;20105;-52
2023/11/16 00:10:10;;;;;;;21.20;4.75;;;9.10;99.90;;;;;;5070639;28;20527;-53
2023/11/16 00:12:35;;;;;;;12.98;4.05;;;9.10;99.90;;;;;;5070625;28;20025;-52
2023/11/16 00:15:02;;;;;;;11.40;4.28;;;9.10;99.90;;;;;;5070332;28;20061;-53
2023/11/16 00:17:28;;;;;;;10.52;4.45;;;9.10;99.90;;;;;;5069912;28;20058;-52
2023/11/16 00:19:55;;;;;;;15.20;5.05;;;9.10;99.90;;;;;;5070952;28;20476;-52
2023/11/16 00:22:20;;;;;;;22.35;4.30;;;9.20;99.90;;;;;;5070685;28;20103;-52
2023/11/16 00:24:46;;;;;;;12.88;4.32;;;9.20;99.90;;;;;;5070431;28;20178;-53
2023/11/16 00:27:12;;;;;;;12.57;4.60;;;9.20;99.90;;;;;;5068800;28;20060;-52
2023/11/16 00:29:38;;;;;;;16.85;4.57;;;9.20;99.90;;;;;;5068690;28;20533;-52
2023/11/16 00:32:04;;;;;;;12.02;3.78;;;9.20;99.90;;;;;;5065115;28;20363;-53
2023/11/16 00:34:30;;;;;;;12.15;4.43;;;9.20;99.90;;;;;;5069766;28;20040;-54
2023/11/16 00:36:55;;;;;;;18.00;4.07;;;9.10;99.90;;;;;;5068153;28;20020;-53
2023/11/16 00:39:21;;;;;;;13.80;4.10;;;9.20;99.90;;;;;;5070227;28;20431;-53
2023/11/16 00:41:47;;;;;;;11.48;3.80;;;9.20;99.90;;;;;;5070087;28;20435;-53
2023/11/16 00:44:14;;;;;;;13.40;4.25;;;9.10;99.90;;;;;;5070054;28;20021;-53
2023/11/16 00:46:43;;;;;;;17.40;4.03;;;9.10;99.90;;;;;;5069372;28;20025;-51
2023/11/16 00:49:09;;;;;;;16.85;4.15;;;9.10;99.90;;;;;;5070305;28;20051;-52
2023/11/16 00:51:34;;;;;;;9.10;3.42;;;9.10;99.90;;;;;;5070238;28;20441;-52
2023/11/16 00:54:01;;;;;;;10.65;4.03;;;9.10;99.90;;;;;;5069640;28;20021;-53
2023/11/16 00:56:27;;;;;;;12.30;3.70;;;9.10;99.90;;;;;;5069285;28;20078;-53
2023/11/16 00:58:55;;;;;;;16.05;4.00;;;9.00;99.90;;;;;;5068066;28;20028;-52
2023/11/16 01:01:22;;;;;;;12.48;4.32;;;9.10;99.90;;;;;;5068027;28;20070;-52
2023/11/16 01:03:49;;;;;;;12.00;4.28;;;9.10;99.90;;;;;;5067958;28;20432;-51
2023/11/16 01:06:15;;;;;;;14.10;3.80;;;9.10;99.90;;;;;;5069244;28;20416;-53
2023/11/16 01:08:41;;;;;;;13.07;4.72;;;9.00;99.90;;;;;;5069231;28;20072;-53
2023/11/16 01:11:08;;;;;;;11.50;4.05;;;9.00;99.90;;;;;;5069397;28;20051;-52
2023/11/16 01:13:41;;;;;;;15.10;3.63;;;9.00;99.90;;;;;;5069112;28;20541;-52
2023/11/16 01:16:15;;;;;;;10.88;4.40;;;9.00;99.90;;;;;;5067549;28;20020;-52
2023/11/16 01:18:49;;;;;;;12.65;3.90;;;8.90;99.90;;;;;;5068806;28;20025;-52
2023/11/16 01:21:16;;;;;;;14.45;4.20;;;9.00;99.90;;;;;;5068901;28;20020;-52
2023/11/16 01:23:44;;;;;;;17.13;5.07;;;9.00;99.90;;;;;;5068833;28;20031;-52
2023/11/16 01:26:16;;;;;;;13.45;3.78;;;9.00;99.90;;;;;;5068379;28;20028;-51
2023/11/16 01:28:50;;;;;;;14.10;3.80;;;8.90;99.90;;;;;;5068208;28;20020;-52
2023/11/16 01:31:19;;;;;;;13.63;3.80;;;8.90;99.90;;;;;;5069121;28;20037;-52
2023/11/16 01:33:46;;;;;;;12.50;3.33;;;8.90;99.90;;;;;;5068434;28;20461;-51
2023/11/16 01:36:12;;;;;;;8.52;3.85;;;8.90;99.90;;;;;;5066785;28;20102;-52
2023/11/16 01:38:37;;;;;;;16.38;4.05;;;8.80;99.90;;;;;;5068468;28;20028;-51
2023/11/16 01:41:08;;;;;;;13.90;4.05;;;8.80;99.90;;;;;;5068669;28;20561;-52
2023/11/16 01:43:34;;;;;;;;;;;8.80;99.90;;;;;;5068980;28;20025;-53
2023/11/16 01:46:07;;;;;;;10.60;3.65;;;8.80;99.90;;;;;;5068366;28;19935;-53
2023/11/16 01:48:34;;;;;;;14.68;4.35;;;8.80;99.90;;;;;;5068565;28;20067;-53
2023/11/16 01:51:06;;;;;;;13.52;4.20;;;8.80;99.90;;;;;;5068569;28;20079;-52
2023/11/16 01:53:56;;;;;;;15.23;4.18;;;8.70;99.90;;;;;;5068432;28;20021;-52
2023/11/16 01:56:23;;;;;;;19.10;4.03;;;8.70;99.90;;;;;;5068162;28;20450;-52
2023/11/16 01:58:51;;;;;;;18.63;4.45;;;8.70;99.90;;;;;;5068688;28;20036;-52
2023/11/16 02:01:17;;;;;;;14.25;3.60;;;8.70;99.90;;;;;;5068765;28;20024;-53
2023/11/16 02:03:46;;;;;;;14.07;4.38;;;8.70;99.90;;;;;;5066891;28;20032;-52
2023/11/16 02:06:12;;;;;;;16.40;4.28;;;8.70;99.90;;;;;;5068110;28;20043;-52
2023/11/16 02:08:38;;;;;;;11.82;4.40;;;8.60;99.90;;;;;;5068001;28;20520;-53
2023/11/16 02:11:04;;;;;;;19.08;5.70;;;8.50;99.90;;;;;;5068438;28;20481;-53
2023/11/16 02:13:30;;;;;;;14.27;3.50;;;8.50;99.90;;;;;;5067393;28;20039;-53
2023/11/16 02:15:56;;;;;;;6.18;3.50;;;8.50;99.90;;;;;;5067548;28;20021;-53
2023/11/16 02:18:22;;;;;;;20.90;4.28;;;8.50;99.90;;;;;;5068352;28;20025;-53
2023/11/16 02:20:48;;;;;;;15.35;5.30;;;8.50;99.90;;;;;;5068263;28;20017;-52
2023/11/16 02:23:20;;;;;;;13.98;4.15;;;8.50;99.90;;;;;;5068399;28;20047;-52
2023/11/16 02:25:57;;;;;;;17.50;4.25;;;8.50;99.90;;;;;;5067887;28;20466;-52
2023/11/16 02:28:23;;;;;;;14.75;4.30;;;8.50;99.90;;;;;;5066706;28;20029;-52
2023/11/16 02:30:50;;;;;;;13.55;4.30;;;8.50;99.90;;;;;;5068097;28;20115;-53
2023/11/16 02:33:16;;;;;;;10.35;4.35;;;8.50;99.90;;;;;;5068234;28;20093;-52
2023/11/16 02:35:42;;;;;;;20.40;4.53;;;8.50;99.90;;;;;;5067080;28;20518;-53
2023/11/16 02:38:08;;;;;;;16.35;5.43;;;8.50;99.90;;;;;;5068015;28;20082;-53
2023/11/16 02:40:34;;;;;;;18.40;5.60;;;8.60;99.90;;;;;;5067963;28;20020;-53
2023/11/16 02:43:02;;;;;;;14.38;4.85;;;8.60;99.90;;;;;;5072196;28;20108;-53
2023/11/16 02:45:28;;;;;;;13.00;5.35;;;8.50;99.90;;;;;;5071715;28;20494;-53
2023/11/16 02:47:54;;;;;;;14.93;5.07;;;8.50;99.90;;;;;;5070778;28;20067;-52
2023/11/16 02:50:22;;;;;;;11.60;4.25;;;8.50;99.90;;;;;;5072573;28;20432;-52
2023/11/16 02:52:51;;;;;;;11.23;4.68;;;8.50;99.90;;;;;;5072242;28;20029;-52
2023/11/16 02:55:20;;;;;;;16.23;4.97;;;8.60;99.90;;;;;;5071964;28;20466;-53
2023/11/16 02:57:45;;;;;;;15.65;4.47;;;8.60;99.90;;;;;;5070096;28;20064;-53
2023/11/16 03:00:12;;;;;;;10.68;3.95;;;8.60;99.90;;;;;;5072355;28;20055;-52
2023/11/16 03:02:42;;;;;;;13.35;5.35;;;8.50;99.90;;;;;;5069983;28;20455;-52
2023/11/16 03:05:14;;;;;;;14.52;3.92;;;8.60;99.90;;;;;;5071681;28;20108;-54
2023/11/16 03:07:40;;;;;;;14.90;6.03;;;8.60;99.90;;;;;;5071339;28;20035;-51
2023/11/16 03:10:11;;;;;;;11.27;4.95;;;8.60;99.90;;;;;;5071754;28;20021;-51
2023/11/16 03:12:37;;;;;;;13.00;5.15;;;8.60;99.90;;;;;;5071191;28;20053;-51
2023/11/16 03:15:05;;;;;;;14.07;5.28;;;8.70;99.90;;;;;;5068306;28;20066;-52
2023/11/16 03:17:32;;;;;;;11.95;5.03;;;8.70;99.90;;;;;;5069392;28;20123;-54
2023/11/16 03:19:58;;;;;;;11.90;4.45;;;8.80;99.90;;;;;;5068730;28;20507;-52
2023/11/16 03:22:25;;;;;;;17.23;5.22;;;8.80;99.90;;;;;;5069502;28;20028;-52
2023/11/16 03:24:52;;;;;;;14.68;4.85;;;8.80;99.90;;;;;;5069607;28;20393;-51
2023/11/16 03:27:18;;;;;;;11.57;4.78;;;8.80;99.90;;;;;;5071256;28;20107;-52
2023/11/16 03:29:44;;;;;;;10.98;4.93;;;8.80;99.90;;;;;;5070855;28;20109;-52
2023/11/16 03:32:10;;;;;;;14.82;5.25;;;8.80;99.90;;;;;;5071098;28;20032;-51
2023/11/16 03:34:36;;;;;;;12.88;4.13;;;8.90;99.90;;;;;;5069572;28;20362;-50
2023/11/16 03:37:03;;;;;;;14.30;4.93;;;8.90;99.90;;;;;;5070654;28;20347;-50
2023/11/16 03:39:30;;;;;;;13.18;5.07;;;8.90;99.90;;;;;;5071271;28;20049;-50
2023/11/16 03:41:57;;;;;;;15.73;4.57;;;8.90;99.90;;;;;;5070728;28;20070;-50
2023/11/16 03:44:23;;;;;;;13.25;4.80;;;8.90;99.90;;;;;;5070640;28;20230;-51
2023/11/16 03:46:48;;;;;;;17.17;4.30;;;9.00;99.90;;;;;;5070580;28;20138;-53
2023/11/16 03:49:14;;;;;;;16.55;5.57;;;9.00;99.90;;;;;;5070508;28;20458;-53
2023/11/16 03:51:40;;;;;;;19.20;5.90;;;8.90;99.90;;;;;;5069570;28;20052;-53
2023/11/16 03:54:05;;;;;;;13.23;4.68;;;8.90;99.90;;;;;;5070358;28;20122;-53
2023/11/16 03:56:31;;;;;;;15.38;4.38;;;9.00;99.90;;;;;;5069998;28;20094;-53
2023/11/16 03:58:57;;;;;;;11.23;4.15;;;9.00;99.90;;;;;;5069112;28;20028;-53
2023/11/16 04:01:22;;;;;;;12.98;4.65;;;9.00;99.90;;;;;;5070592;28;20471;-52
2023/11/16 04:03:48;;;;;;;17.75;6.65;;;9.00;99.90;;;;;;5070311;28;20304;-52
2023/11/16 04:06:18;;;;;;;14.13;5.10;;;9.00;99.90;;;;;;5068721;28;20119;-52
2023/11/16 04:08:43;;;;;;;15.98;5.05;;;9.00;99.90;;;;;;5070248;28;20369;-53
2023/11/16 04:11:10;;;;;;;17.98;4.55;;;9.00;99.90;;;;;;5070735;28;20128;-52
2023/11/16 04:13:36;;;;;;;14.18;5.10;;;9.00;99.90;;;;;;5069984;28;20485;-53
2023/11/16 04:16:02;;;;;;;12.43;4.28;;;9.10;99.90;;;;;;5070232;28;20035;-55
2023/11/16 04:18:27;;;;;;;10.63;4.25;;;9.00;99.90;;;;;;5069243;28;20020;-53
2023/11/16 04:20:53;;;;;;;14.07;4.10;;;9.10;99.90;;;;;;5065939;28;20056;-52
2023/11/16 04:23:19;;;;;;;17.55;4.97;;;9.10;99.90;;;;;;5066342;28;20116;-53
2023/11/16 04:25:45;;;;;;;12.15;3.92;;;9.00;99.90;;;;;;5062949;28;20025;-53
2023/11/16 04:28:13;;;;;;;12.85;4.22;;;9.10;99.90;;;;;;5064243;28;20040;-53
2023/11/16 04:30:38;;;;;;;9.85;4.32;;;9.00;99.90;;;;;;5066841;28;20016;-53
2023/11/16 04:33:04;;;;;;;10.48;4.80;;;9.00;99.90;;;;;;5063193;28;20055;-53
2023/11/16 04:35:30;;;;;;;12.38;4.63;;;9.10;99.90;;;;;;5062548;28;20023;-53
2023/11/16 04:37:58;;;;;;;10.02;4.35;;;9.10;99.90;;;;;;5069344;28;20017;-52
2023/11/16 04:40:24;;;;;;;12.18;4.35;;;9.00;99.90;;;;;;5069222;28;20022;-53
2023/11/16 04:42:50;;;;;;;12.05;3.78;;;9.10;99.90;;;;;;5068705;28;20035;-52
2023/11/16 04:45:16;;;;;;;11.00;4.40;;;9.10;99.90;;;;;;5069761;28;20100;-55
2023/11/16 04:47:44;;;;;;;18.40;5.15;;;9.10;99.90;;;;;;5067822;28;20032;-52
2023/11/16 04:50:13;;;;;;;9.23;4.57;;;9.00;99.90;;;;;;5069582;28;20150;-52
2023/11/16 04:52:45;;;;;;;12.30;4.57;;;9.10;99.90;;;;;;5069581;28;20078;-52
2023/11/16 04:55:11;;;;;;;12.68;4.13;;;9.00;99.90;;;;;;5069364;28;20021;-52
2023/11/16 04:57:37;;;;;;;15.35;3.92;;;9.00;99.90;;;;;;5068972;28;20509;-52
2023/11/16 05:00:10;;;;;;;20.13;4.55;;;9.00;99.90;;;;;;5068012;28;20055;-52
2023/11/16 05:02:36;;;;;;;14.15;4.28;;;9.00;99.90;;;;;;5069373;28;20031;-52
2023/11/16 05:05:03;;;;;;;13.68;4.20;;;9.00;99.90;;;;;;5067594;28;20112;-52
2023/11/16 05:07:29;;;;;;;10.90;4.25;;;8.90;99.90;;;;;;5069035;28;20432;-52
2023/11/16 05:09:58;;;;;;;12.60;3.40;;;9.00;99.90;;;;;;5069096;28;20020;-52
2023/11/16 05:12:24;;;;;;;10.30;3.35;;;9.00;99.90;;;;;;5069296;28;21924;-52
2023/11/16 05:14:49;;;;;;;11.55;2.92;;;9.00;99.90;;;;;;5069051;28;20075;-52
2023/11/16 05:17:15;;;;;;;7.38;2.85;;;8.90;99.90;;;;;;5068829;28;20489;-52
2023/11/16 05:19:40;;;;;;;7.82;2.47;;;8.90;99.90;;;;;;5067965;28;20028;-52
2023/11/16 05:22:06;;;;;;;3.85;2.33;;;8.90;99.90;;;;;;5069461;28;20017;-53
2023/11/16 05:24:32;;;;;;;6.53;2.25;;;8.90;99.90;;;;;;5069300;28;20032;-53
2023/11/16 05:27:02;;;;;;;6.43;2.60;;;8.90;99.90;;;;;;5068966;28;20521;-53
2023/11/16 05:29:29;;;;;;;5.67;2.40;;;8.90;99.90;;;;;;5069252;28;20398;-53
2023/11/16 05:31:56;;;;;;;10.07;2.10;;;8.80;99.90;;;;;;5069307;28;20266;-52
2023/11/16 05:34:22;;;;;;;6.90;1.70;;;8.80;99.90;;;;;;5067348;28;20021;-52
2023/11/16 05:36:48;;;;;;;7.78;2.42;;;8.80;99.90;;;;;;5068626;28;20021;-52
2023/11/16 05:39:16;;;;;;;9.13;1.95;;;8.70;99.90;;;;;;5069039;28;20031;-52
2023/11/16 05:41:42;;;;;;;6.55;2.53;;;8.70;99.90;;;;;;5069029;28;20016;-53
2023/11/16 05:44:07;;;;;;;10.88;2.05;;;8.70;99.90;;;;;;5069063;28;20035;-52
2023/11/16 05:46:33;;;;;;;6.22;2.17;;;8.60;99.90;;;;;;5068316;28;20456;-53
2023/11/16 05:48:59;;;;;;;12.95;2.67;;;8.60;99.90;;;;;;5068979;28;20028;-53
2023/11/16 05:51:24;;;;;;;8.30;2.45;;;8.50;99.90;;;;;;5068963;28;20051;-53
2023/11/16 05:53:50;;;;;;;9.18;2.38;;;8.50;99.90;;;;;;5068839;28;20051;-53
2023/11/16 05:56:16;;;;;;;10.05;2.28;;;8.40;99.90;;;;;;5068778;28;20027;-53
2023/11/16 05:58:42;;;;;;;12.05;3.05;;;8.40;99.90;;;;;;5069107;28;20490;-53
2023/11/16 06:01:11;;;;;;;5.90;2.20;;;8.40;99.90;;;;;;5067229;28;20024;-53
2023/11/16 06:03:36;;;;;;;5.30;2.47;;;8.30;99.90;;;;;;5068589;28;20020;-53
2023/11/16 06:06:03;;;;;;;6.15;2.30;;;8.20;99.90;;;;;;5068271;28;20530;-53
2023/11/16 06:08:29;;;;;;;8.55;2.78;;;8.20;99.90;;;;;;5068795;28;20112;-52
2023/11/16 06:10:55;;;;;;;5.22;2.40;;;8.10;99.90;;;;;;5068415;28;20119;-52
2023/11/16 06:13:22;;;;;;;6.22;2.30;;;8.10;99.90;;;;;;5066752;28;20411;-52
2023/11/16 06:15:48;;;;;;;6.72;2.60;;;8.10;99.90;;;;;;5067056;28;20066;-54
2023/11/16 06:18:15;;;;;;;9.65;2.78;;;8.10;99.90;;;;;;5068206;28;20039;-53
2023/11/16 06:20:41;;;;;;;7.57;2.30;;;8.00;99.90;;;;;;5067915;28;20020;-53
2023/11/16 06:23:07;;;;;;;8.18;2.17;;;8.00;99.90;;;;;;5068447;28;20032;-53
2023/11/16 06:25:33;;;;;;;4.10;1.90;;;8.00;99.90;;;;;;5066359;28;20051;-53
2023/11/16 06:27:58;;;;;;;8.23;2.10;;;8.00;99.90;;;;;;5067570;28;20418;-53
2023/11/16 06:30:24;;;;;;;7.90;2.85;;;8.00;99.90;;;;;;5068052;28;20155;-53
2023/11/16 06:32:49;;;;;;;5.20;2.38;;;8.00;99.90;;;;;;5068407;28;20029;-53
2023/11/16 06:35:15;;;;;;;7.35;2.00;;;8.00;99.90;;;;;;5066071;28;20020;-53
2023/11/16 06:37:41;;;;;;;6.25;2.00;;;8.00;99.90;;;;;;5066585;28;20389;-53
2023/11/16 06:40:08;;;;;;;7.00;2.30;;;8.00;99.90;;;;;;5067987;28;20033;-53
2023/11/16 06:42:36;;;;;;;8.57;1.80;;;8.00;99.90;;;;;;5067939;28;20052;-53
2023/11/16 06:45:04;;;;;;;4.22;1.60;;;8.00;99.90;;;;;;5067815;28;20040;-51
2023/11/16 06:47:30;;;;;;;6.85;2.53;;;8.00;99.90;;;;;;5067527;28;20573;-51
2023/11/16 06:49:56;;;;;;;6.53;3.08;;;8.00;99.90;;;;;;5067828;28;20092;-51
2023/11/16 06:52:23;;;;;;;5.82;2.08;;;8.00;99.90;;;;;;5067681;28;20081;-52
2023/11/16 06:54:49;;;;;;;5.00;1.80;;;8.00;99.90;;;;;;5067992;28;20017;-50
2023/11/16 06:57:15;;;;;;;9.93;2.28;;;8.00;99.90;;;;;;5066346;28;20021;-51
2023/11/16 06:59:42;;;;;;;8.18;2.03;;;8.00;99.90;;;;;;5067800;28;20012;-51
2023/11/16 07:02:08;;;;;;;11.52;2.35;;;8.00;99.90;;;;;;5067766;28;20039;-50
2023/11/16 07:04:36;;;;;;;8.00;1.77;;;7.90;99.90;;;;;;5067348;28;20020;-50
2023/11/16 07:07:03;;;;;;;3.58;1.80;;;8.00;99.90;;;;;;5067386;28;20021;-50
2023/11/16 07:09:29;;;;;;;8.10;1.92;;;8.00;99.90;;;;;;5067956;28;20036;-47
2023/11/16 07:11:55;;;;;;;5.90;2.30;;;7.90;99.90;;;;;;5068066;28;20033;-51
2023/11/16 07:14:20;;;;;;;7.55;2.05;;;7.90;99.90;;;;;;5066847;28;20107;-49
2023/11/16 07:16:47;;;;;;;5.38;2.20;;;7.90;99.90;;;;;;5067375;28;20102;-49
2023/11/16 07:19:13;;;;;;;7.53;1.73;;;7.90;99.90;;;;;;5066253;28;20016;-50
2023/11/16 07:21:39;;;;;;;7.57;1.98;;;7.90;99.90;;;;;;5067813;28;20473;-50
2023/11/16 07:24:05;;;;;;;7.45;1.60;;;8.00;99.90;;;;;;5067489;28;20382;-49
2023/11/16 07:26:31;;;;;;;6.30;1.48;;;7.90;99.90;;;;;;5068111;28;20027;-48
2023/11/16 07:28:57;;;;;;;5.63;0.90;;;7.90;99.90;;;;;;5071168;28;20028;-50
2023/11/16 07:31:24;;;;;;;3.17;1.65;;;7.90;99.90;;;;;;5071172;28;20035;-51
2023/11/16 07:33:52;;;;;;;2.30;1.10;;;7.90;99.90;;;;;;5069551;28;20332;-51
2023/11/16 07:36:27;;;;;;;2.45;1.13;;;7.80;99.90;;;;;;5071167;28;20052;-51
2023/11/16 07:38:58;;;;;;;5.13;1.23;;;7.80;99.90;;;;;;5071190;28;20068;-52
2023/11/16 07:41:30;;;;;;;5.57;1.23;;;7.80;99.90;;;;;;5071227;28;20021;-52
2023/11/16 07:43:59;;;;;;;5.63;1.65;;;7.70;99.90;;;;;;5071283;28;20090;-53
2023/11/16 07:46:24;;;;;;;4.22;1.80;;;7.70;99.90;;;;;;5071266;28;20103;-52
2023/11/16 07:48:50;;;;;;;4.63;0.98;;;7.60;99.90;;;;;;5071183;28;20153;-51
2023/11/16 07:51:19;;;;;;;4.18;1.00;;;7.60;99.90;;;;;;5071113;28;20029;-52
2023/11/16 07:53:51;;;;;;;3.60;0.88;;;7.50;99.90;;;;;;5070986;28;20358;-52
2023/11/16 07:56:17;;;;;;;2.60;0.82;;;7.40;99.90;;;;;;5070163;28;20097;-52
2023/11/16 07:58:52;;;;;;;3.42;1.02;;;7.40;99.90;;;;;;5070432;28;20032;-52
2023/11/16 08:01:21;;;;;;;11.88;2.55;;;7.40;99.90;;;;;;5070776;28;20020;-52
2023/11/16 08:03:55;;;;;;;2.15;0.82;;;7.30;99.90;;;;;;5076532;28;20024;-51
2023/11/16 08:06:22;;;;;;;2.00;1.00;;;7.30;99.90;;;;;;5069416;28;20050;-52
2023/11/16 08:08:49;;;;;;;2.20;0.88;;;7.30;99.90;;;;;;5070059;28;20032;-52
2023/11/16 08:11:16;;;;;;;1.77;1.20;;;7.20;99.90;;;;;;5070262;28;20036;-52
2023/11/16 08:13:47;;;;;;;2.08;1.00;;;7.20;99.90;;;;;;5070275;28;20485;-52
2023/11/16 08:16:18;;;;;;;8.73;0.93;;;7.20;99.90;;;;;;5069785;28;20017;-52
2023/11/16 08:18:44;;;;;;;1.73;0.65;;;7.20;99.90;;;;;;5070287;28;20044;-52
2023/11/16 08:21:10;;;;;;;4.45;1.20;;;7.20;99.90;;;;;;5070541;28;20020;-53
2023/11/16 08:23:41;;;;;;;1.77;0.80;;;7.20;99.90;;;;;;5070524;28;20017;-53
2023/11/16 08:26:09;;;;;;;2.13;0.85;;;7.20;99.90;;;;;;5070238;28;20580;-53
2023/11/16 08:28:36;;;;;;;1.00;0.60;;;7.20;99.90;;;;;;5069061;28;20485;-52
2023/11/16 08:31:02;;;;;;;6.18;0.73;;;7.20;99.90;;;;;;5068459;28;20024;-53
2023/11/16 08:33:29;;;;;;;3.40;1.08;;;7.30;99.90;;;;;;5068229;28;20021;-52
2023/11/16 08:35:58;;;;;;;3.38;1.63;;;7.30;99.90;;;;;;5069232;28;20067;-53
2023/11/16 08:38:25;;;;;;;3.63;1.35;;;7.30;99.90;;;;;;5069212;28;20027;-52
2023/11/16 08:40:54;;;;;;;2.40;0.80;;;7.30;99.90;;;;;;5069566;28;20036;-53
2023/11/16 08:43:20;;;;;;;2.28;0.70;;;7.40;99.90;;;;;;5069751;28;20044;-52
2023/11/16 08:45:45;;;;;;;1.83;1.00;;;7.40;99.90;;;;;;5069240;28;20075;-52
2023/11/16 08:48:15;;;;;;;3.53;0.98;;;7.40;99.90;;;;;;5068471;28;20032;-52
2023/11/16 08:50:42;;;;;;;3.80;1.03;;;7.40;99.90;;;;;;5069802;28;20028;-52
2023/11/16 08:53:08;;;;;;;4.65;0.95;;;7.40;99.90;;;;;;5069575;28;20028;-52
2023/11/16 08:55:34;;;;;;;4.00;1.00;;;7.50;99.90;;;;;;5068086;28;20020;-52
2023/11/16 08:58:00;;;;;;;6.97;0.90;;;7.50;99.90;;;;;;5067751;28;20024;-51
2023/11/16 09:00:36;;;;;;;3.55;0.90;;;7.60;99.90;;;;;;5069563;28;20013;-51
2023/11/16 09:03:07;;;;;;;3.08;0.82;;;7.70;99.90;;;;;;5069408;28;20458;-53
2023/11/16 09:05:35;;;;;;;4.07;1.02;;;7.90;99.90;;;;;;5069250;28;20021;-52
2023/11/16 09:08:01;;;;;;;5.72;1.10;;;8.10;99.90;;;;;;5069433;28;20113;-53
2023/11/16 09:10:30;;;;;;;2.05;0.85;;;8.20;99.90;;;;;;5069424;28;20067;-52
2023/11/16 09:12:56;;;;;;;3.67;1.10;;;8.20;99.90;;;;;;5069391;28;20054;-53
2023/11/16 09:15:22;;;;;;;3.53;1.00;;;8.30;99.90;;;;;;5069685;28;20431;-53
2023/11/16 09:17:49;;;;;;;2.10;0.85;;;8.30;99.90;;;;;;5069559;28;20027;-53
2023/11/16 09:20:18;;;;;;;2.03;1.85;;;8.40;99.90;;;;;;5069365;28;20391;-54
2023/11/16 09:22:50;;;;;;;3.30;1.42;;;8.30;99.90;;;;;;5069115;28;20024;-53
2023/11/16 09:25:24;;;;;;;7.07;1.20;;;8.30;99.90;;;;;;5069238;28;20024;-52
2023/11/16 09:27:51;;;;;;;2.53;0.98;;;8.30;99.90;;;;;;5068777;28;20650;-52
2023/11/16 09:30:17;;;;;;;5.38;1.15;;;8.30;99.90;;;;;;5068711;28;20074;-53
2023/11/16 09:32:43;;;;;;;1.90;0.80;;;8.30;99.90;;;;;;5068369;28;20120;-53
2023/11/16 09:35:09;;;;;;;5.13;1.15;;;8.20;99.90;;;;;;5068619;28;20043;-53
2023/11/16 09:37:36;;;;;;;2.60;0.90;;;8.10;99.90;;;;;;5068675;28;20024;-51
2023/11/16 09:40:04;;;;;;;9.13;1.10;;;8.10;99.90;;;;;;5068982;28;20043;-52
2023/11/16 09:42:33;;;;;;;3.88;1.38;;;8.00;99.90;;;;;;5068700;28;20020;-52
2023/11/16 09:45:02;;;;;;;7.30;1.30;;;7.90;99.90;;;;;;5068564;28;20112;-52
2023/11/16 09:47:30;;;;;;;4.25;1.02;;;7.90;99.90;;;;;;5068817;28;20027;-50
2023/11/16 09:49:56;;;;;;;4.30;0.80;;;8.00;99.90;;;;;;5067506;28;20020;-53
2023/11/16 09:52:39;;;;;;;4.20;1.00;;;8.20;99.90;;;;;;5066789;28;20077;-53
2023/11/16 09:55:09;;;;;;;2.55;0.90;;;8.40;99.90;;;;;;5068412;28;20023;-53
2023/11/16 09:57:40;;;;;;;2.05;0.88;;;8.60;99.90;;;;;;5067171;28;20111;-52
2023/11/16 10:00:14;;;;;;;2.13;1.30;;;8.90;99.90;;;;;;5067506;28;20250;-52
2023/11/16 10:02:52;;;;;;;5.70;1.10;;;9.20;99.90;;;;;;5068549;28;20024;-52
2023/11/16 10:05:31;;;;;;;4.53;1.08;;;10.00;99.90;;;;;;5068761;28;20028;-52
2023/11/16 10:08:01;;;;;;;3.20;0.60;;;11.10;99.90;;;;;;5068434;28;20427;-52
2023/11/16 10:10:28;;;;;;;4.38;0.75;;;11.00;99.90;;;;;;5067488;28;20040;-53
2023/11/16 10:12:53;;;;;;;1.85;0.63;;;10.60;99.90;;;;;;5068234;28;20069;-52
2023/11/16 10:15:20;;;;;;;5.53;0.80;;;10.80;99.90;;;;;;5068172;28;20028;-52
2023/11/16 10:17:49;;;;;;;3.22;0.90;;;10.90;99.90;;;;;;5067905;28;20027;-53
2023/11/16 10:20:20;;;;;;;4.97;0.93;;;10.70;99.90;;;;;;5068163;28;20036;-52
2023/11/16 10:22:47;;;;;;;2.42;0.98;;;10.10;99.90;;;;;;5067879;28;20017;-52
2023/11/16 10:25:14;;;;;;;0.98;0.60;;;10.60;99.90;;;;;;5067826;28;20099;-52
2023/11/16 10:27:40;;;;;;;3.50;1.02;;;12.10;99.90;;;;;;5067861;28;20029;-53
2023/11/16 10:30:06;;;;;;;4.43;0.90;;;13.50;99.90;;;;;;5068082;28;20408;-53
2023/11/16 10:32:35;;;;;;;2.30;0.80;;;14.20;98.20;;;;;;5068202;28;20024;-52
2023/11/16 10:35:05;;;;;;;1.15;0.70;;;14.80;96.80;;;;;;5068316;28;20109;-53
2023/11/16 10:37:31;;;;;;;2.28;0.90;;;15.70;94.50;;;;;;5068161;28;20012;-53
2023/11/16 10:39:57;;;;;;;1.67;1.08;;;15.30;92.70;;;;;;5068388;28;20563;-52
2023/11/16 10:42:26;;;;;;;2.13;0.60;;;15.10;93.30;;;;;;5068483;28;20052;-52
2023/11/16 10:44:53;;;;;;;2.25;0.80;;;15.10;91.80;;;;;;5067911;28;20093;-52
2023/11/16 10:47:21;;;;;;;3.03;0.70;;;15.40;92.40;;;;;;5066758;28;20044;-53
2023/11/16 10:49:48;;;;;;;3.33;0.63;;;16.60;91.40;;;;;;5068051;28;20021;-52
2023/11/16 10:52:15;;;;;;;2.65;1.00;;;17.40;88.90;;;;;;5067921;28;20023;-53
2023/11/16 10:54:45;;;;;;;4.25;0.75;;;18.30;85.00;;;;;;5065274;28;20529;-53
2023/11/16 10:57:14;;;;;;;1.98;0.75;;;17.80;84.70;;;;;;5067696;28;20032;-52
2023/11/16 10:59:46;;;;;;;2.40;0.75;;;16.50;85.40;;;;;;5067782;28;20039;-52
2023/11/16 11:02:16;;;;;;;2.92;0.82;;;15.20;90.00;;;;;;5069774;28;20385;-51
2023/11/16 11:04:42;;;;;;;5.75;1.15;;;14.30;92.10;;;;;;5071506;28;20032;-52
2023/11/16 11:07:13;;;;;;;1.77;0.73;;;13.70;92.70;;;;;;5078306;28;20215;-52
2023/11/16 11:09:44;;;;;;;2.85;0.60;;;13.60;93.10;;;;;;5078785;28;20161;-51
2023/11/16 11:12:13;;;;;;;3.40;1.13;;;13.70;93.50;;;;;;5076792;28;20020;-52
2023/11/16 11:14:48;;;;;;;3.65;0.93;;;13.20;94.00;;;;;;5078661;28;20028;-51
2023/11/16 11:17:18;;;;;;;4.70;1.00;;;12.60;94.90;;;;;;5079376;28;20381;-53
2023/11/16 11:19:54;;;;;;;4.33;0.83;;;12.00;95.50;;;;;;5076254;28;20033;-52
2023/11/16 11:22:25;;;;;;;4.18;1.17;;;13.10;97.10;;;;;;5078785;28;20009;-53
2023/11/16 11:24:50;;;;;;;;;;;13.90;95.30;;;;;;5076332;28;20049;-54
2023/11/16 11:27:16;;;;;;;2.40;0.90;;;15.50;93.00;;;;;;5078150;28;19904;-54
2023/11/16 11:29:42;;;;;;;2.00;0.80;;;17.00;90.70;;;;;;5077966;28;20052;-54
2023/11/16 11:32:18;;;;;;;3.47;0.82;;;18.30;86.20;;;;;;5077415;28;20020;-54
2023/11/16 11:34:44;;;;;;;1.20;0.70;;;18.90;85.20;;;;;;5078128;28;20062;-54
2023/11/16 11:37:10;;;;;;;2.47;0.85;;;19.90;80.30;;;;;;5078184;28;20052;-54
2023/11/16 11:39:46;;;;;;;3.10;0.77;;;20.10;79.30;;;;;;5078535;28;20016;-54
2023/11/16 11:42:16;;;;;;;0.95;0.75;;;20.60;75.30;;;;;;5078734;28;20016;-54
2023/11/16 11:44:56;;;;;;;1.35;0.68;;;20.50;73.80;;;;;;5078096;28;20630;-54
2023/11/16 11:47:24;;;;;;;1.25;0.70;;;20.60;75.50;;;;;;5071405;28;20035;-54
2023/11/16 11:49:51;;;;;;;5.35;0.70;;;20.90;73.10;;;;;;5071324;28;20411;-52
2023/11/16 11:52:17;;;;;;;0.77;0.60;;;20.70;70.90;;;;;;5071289;28;20020;-51
2023/11/16 11:54:45;;;;;;;1.92;0.80;;;20.60;72.40;;;;;;5071154;28;20037;-52
2023/11/16 11:57:11;;;;;;;2.75;1.05;;;20.50;73.00;;;;;;5070938;28;20021;-52
2023/11/16 11:59:36;;;;;;;1.13;0.63;;;20.40;71.60;;;;;;5071318;28;20024;-52
2023/11/16 12:02:10;;;;;;;1.85;0.82;;;19.10;71.00;;;;;;5071194;28;20058;-52
2023/11/16 12:04:36;;;;;;;0.85;0.80;;;17.60;75.20;;;;;;5069593;28;20545;-53
2023/11/16 12:07:10;;;;;;;1.13;0.68;;;16.10;77.40;;;;;;5069381;28;20049;-54
2023/11/16 12:09:40;;;;;;;2.60;1.00;;;14.80;81.40;;;;;;5075878;28;20074;-50
2023/11/16 12:12:08;;;;;;;3.53;1.08;;;13.70;83.50;;;;;;5069452;28;20054;-50
2023/11/16 12:14:46;;;;;;;2.92;1.02;;;13.00;86.30;;;;;;5068870;28;20031;-50
2023/11/16 12:17:12;;;;;;;4.72;0.70;;;12.20;90.50;;;;;;5068454;28;20438;-50
2023/11/16 12:19:40;;;;;;;4.05;0.80;;;11.70;90.90;;;;;;5069912;28;20025;-51
2023/11/16 12:22:07;;;;;;;4.40;0.82;;;11.50;91.80;;;;;;5068283;28;20093;-50
2023/11/16 12:24:33;;;;;;;4.28;0.95;;;11.20;92.60;;;;;;5066631;28;20374;-50
2023/11/16 12:26:59;;;;;;;6.35;1.13;;;10.90;93.00;;;;;;5068624;28;20120;-50
2023/11/16 12:29:26;;;;;;;5.03;1.00;;;10.70;93.60;;;;;;5069385;28;20035;-50
2023/11/16 12:31:54;;;;;;;4.82;1.08;;;10.50;94.00;;;;;;5068808;28;20028;-50
2023/11/16 12:34:22;;;;;;;2.47;1.35;;;10.20;93.90;;;;;;5067784;28;20032;-50
2023/11/16 12:36:48;;;;;;;4.13;0.93;;;10.10;94.90;;;;;;5068921;28;20020;-50
2023/11/16 12:39:14;;;;;;;1.58;0.60;;;10.10;96.10;;;;;;5069145;28;20044;-49
2023/11/16 12:41:40;;;;;;;4.05;0.57;;;10.10;95.50;;;;;;5070072;28;20028;-50
2023/11/16 12:44:07;;;;;;;2.72;0.77;;;10.10;97.30;;;;;;5069521;28;20019;-50
2023/11/16 12:46:32;;;;;;;1.38;0.95;;;10.20;96.60;;;;;;5068169;28;20078;-51
2023/11/16 12:48:58;;;;;;;2.20;0.70;;;10.20;96.40;;;;;;5061230;28;20029;-54
2023/11/16 12:51:25;;;;;;;6.18;1.13;;;10.10;95.90;;;;;;5070284;28;20039;-51